sensor_id;sensor_type;location;lat;lon;timestamp;temperature;humidity
1716;DHT22;855;48.824;9.220;2022-10-16T05:04:29;17.50;94.20
1716;DHT22;855;48.824;9.220;2022-10-16T05:06:55;17.50;94.10
1716;DHT22;855;48.824;9.220;2022-10-16T05:09:22;17.50;94.10
1716;DHT22;855;48.824;9.220;2022-10-16T05:11:49;17.40;94.20
1716;DHT22;855;48.824;9.220;2022-10-16T05:14:16;17.40;94.40
1716;DHT22;855;48.824;9.220;2022-10-16T05:16:43;17.40;94.30
1716;DHT22;855;48.824;9.220;2022-10-16T05:19:10;17.40;94.20
1716;DHT22;855;48.824;9.220;2022-10-16T05:21:38;17.40;94.30
1716;DHT22;855;48.824;9.220;2022-10-16T05:24:05;17.50;94.30
1716;DHT22;855;48.824;9.220;2022-10-16T05:26:31;17.50;94.20
1716;DHT22;855;48.824;9.220;2022-10-16T05:28:58;17.50;94.20
1716;DHT22;855;48.824;9.220;2022-10-16T05:31:25;17.50;94.20
1716;DHT22;855;48.824;9.220;2022-10-16T05:33:52;17.30;94.20
1716;DHT22;855;48.824;9.220;2022-10-16T05:36:18;17.30;94.50
1716;DHT22;855;48.824;9.220;2022-10-16T05:38:50;17.40;94.50
1716;DHT22;855;48.824;9.220;2022-10-16T05:41:18;17.30;94.40
1716;DHT22;855;48.824;9.220;2022-10-16T05:43:47;17.40;94.50
1716;DHT22;855;48.824;9.220;2022-10-16T05:46:15;17.30;94.30
1716;DHT22;855;48.824;9.220;2022-10-16T05:48:42;17.20;94.60
1716;DHT22;855;48.824;9.220;2022-10-16T05:51:11;17.10;95.00
1716;DHT22;855;48.824;9.220;2022-10-16T05:53:39;17.20;94.90
1716;DHT22;855;48.824;9.220;2022-10-16T05:56:10;17.20;94.80
1716;DHT22;855;48.824;9.220;2022-10-16T05:58:38;17.20;94.80
1716;DHT22;855;48.824;9.220;2022-10-16T06:01:08;17.20;94.80
1716;DHT22;855;48.824;9.220;2022-10-16T06:03:36;17.20;94.90
1716;DHT22;855;48.824;9.220;2022-10-16T06:06:08;17.30;94.80
1716;DHT22;855;48.824;9.220;2022-10-16T06:08:35;17.30;94.80
1716;DHT22;855;48.824;9.220;2022-10-16T06:11:03;17.30;94.70
1716;DHT22;855;48.824;9.220;2022-10-16T06:13:31;17.30;94.80
1716;DHT22;855;48.824;9.220;2022-10-16T06:15:59;17.30;94.70
1716;DHT22;855;48.824;9.220;2022-10-16T06:18:27;17.30;94.70
1716;DHT22;855;48.824;9.220;2022-10-16T06:20:54;17.20;95.00
1716;DHT22;855;48.824;9.220;2022-10-16T06:23:21;17.30;95.00
1716;DHT22;855;48.824;9.220;2022-10-16T06:25:48;17.30;95.10
1716;DHT22;855;48.824;9.220;2022-10-16T06:28:15;17.30;94.90
1716;DHT22;855;48.824;9.220;2022-10-16T06:30:43;17.40;94.90
1716;DHT22;855;48.824;9.220;2022-10-16T06:33:11;17.40;94.90
1716;DHT22;855;48.824;9.220;2022-10-16T06:35:37;17.50;94.80
1716;DHT22;855;48.824;9.220;2022-10-16T06:38:04;17.50;94.80
1716;DHT22;855;48.824;9.220;2022-10-16T06:40:31;17.60;94.70
1716;DHT22;855;48.824;9.220;2022-10-16T06:42:58;17.60;94.50
1716;DHT22;855;48.824;9.220;2022-10-16T06:45:25;17.70;94.50
1716;DHT22;855;48.824;9.220;2022-10-16T06:47:53;17.70;94.40
1716;DHT22;855;48.824;9.220;2022-10-16T06:50:20;17.70;94.30
1716;DHT22;855;48.824;9.220;2022-10-16T06:52:46;17.70;94.30
1716;DHT22;855;48.824;9.220;2022-10-16T06:55:13;17.70;94.40
1716;DHT22;855;48.824;9.220;2022-10-16T06:57:42;17.70;94.60
1716;DHT22;855;48.824;9.220;2022-10-16T07:00:09;17.70;94.40
1716;DHT22;855;48.824;9.220;2022-10-16T07:02:36;17.70;94.20
1716;DHT22;855;48.824;9.220;2022-10-16T07:05:05;17.60;94.70
1716;DHT22;855;48.824;9.220;2022-10-16T07:07:32;17.60;94.80
1716;DHT22;855;48.824;9.220;2022-10-16T07:09:58;17.70;94.60
1716;DHT22;855;48.824;9.220;2022-10-16T07:12:25;17.70;94.70
1716;DHT22;855;48.824;9.220;2022-10-16T07:14:52;17.80;94.70
1716;DHT22;855;48.824;9.220;2022-10-16T07:17:20;17.80;94.50
1716;DHT22;855;48.824;9.220;2022-10-16T07:19:46;17.90;94.60
1716;DHT22;855;48.824;9.220;2022-10-16T07:22:15;18.00;94.40
1716;DHT22;855;48.824;9.220;2022-10-16T07:24:41;18.10;94.30
1716;DHT22;855;48.824;9.220;2022-10-16T07:27:09;18.10;94.10
1716;DHT22;855;48.824;9.220;2022-10-16T07:29:35;18.20;94.10
1716;DHT22;855;48.824;9.220;2022-10-16T07:32:02;18.30;93.80
1716;DHT22;855;48.824;9.220;2022-10-16T07:34:29;18.30;93.50
1716;DHT22;855;48.824;9.220;2022-10-16T07:36:56;18.40;93.40
1716;DHT22;855;48.824;9.220;2022-10-16T07:57:32;18.00;94.60
1716;DHT22;855;48.824;9.220;2022-10-16T07:59:58;18.20;94.20
1716;DHT22;855;48.824;9.220;2022-10-16T08:02:25;18.30;94.20
1716;DHT22;855;48.824;9.220;2022-10-16T08:04:52;18.30;93.80
1716;DHT22;855;48.824;9.220;2022-10-16T08:07:19;18.40;93.80
1716;DHT22;855;48.824;9.220;2022-10-16T08:09:49;18.40;93.40
1716;DHT22;855;48.824;9.220;2022-10-16T08:12:17;18.60;93.30
1716;DHT22;855;48.824;9.220;2022-10-16T08:14:45;18.70;93.30
1716;DHT22;855;48.824;9.220;2022-10-16T08:17:14;18.80;93.00
1716;DHT22;855;48.824;9.220;2022-10-16T09:07:27;20.60;84.20
1716;DHT22;855;48.824;9.220;2022-10-16T09:21:01;20.60;83.70
1716;DHT22;855;48.824;9.220;2022-10-16T09:27:19;20.70;83.40
1716;DHT22;855;48.824;9.220;2022-10-16T09:29:46;20.90;83.40
1716;DHT22;855;48.824;9.220;2022-10-16T09:32:15;21.00;82.70
1716;DHT22;855;48.824;9.220;2022-10-16T09:34:47;21.10;82.30
1716;DHT22;855;48.824;9.220;2022-10-16T09:40:02;21.20;82.00
1716;DHT22;855;48.824;9.220;2022-10-16T09:42:31;21.30;81.30
1716;DHT22;855;48.824;9.220;2022-10-16T09:44:59;21.30;81.10
1716;DHT22;855;48.824;9.220;2022-10-16T09:47:28;21.30;82.00
1716;DHT22;855;48.824;9.220;2022-10-16T09:49:56;21.40;81.90
1716;DHT22;855;48.824;9.220;2022-10-16T09:52:25;21.50;81.10
1716;DHT22;855;48.824;9.220;2022-10-16T09:54:53;21.50;80.30
1716;DHT22;855;48.824;9.220;2022-10-16T09:57:21;21.60;80.10
1716;DHT22;855;48.824;9.220;2022-10-16T09:59:51;21.80;79.50
1716;DHT22;855;48.824;9.220;2022-10-16T10:02:20;21.90;78.40
1716;DHT22;855;48.824;9.220;2022-10-16T10:04:51;22.00;78.00
1716;DHT22;855;48.824;9.220;2022-10-16T10:07:23;22.00;78.20
1716;DHT22;855;48.824;9.220;2022-10-16T10:09:51;22.00;77.60
1716;DHT22;855;48.824;9.220;2022-10-16T10:12:20;22.10;77.50
1716;DHT22;855;48.824;9.220;2022-10-16T10:14:49;22.20;78.30
1716;DHT22;855;48.824;9.220;2022-10-16T10:17:19;22.30;78.60
1716;DHT22;855;48.824;9.220;2022-10-16T10:19:48;22.40;77.10
1716;DHT22;855;48.824;9.220;2022-10-16T10:22:27;22.60;76.70
1716;DHT22;855;48.824;9.220;2022-10-16T10:25:14;22.70;76.80
1716;DHT22;855;48.824;9.220;2022-10-16T10:27:52;22.70;75.50
1716;DHT22;855;48.824;9.220;2022-10-16T10:30:29;22.70;76.40
1716;DHT22;855;48.824;9.220;2022-10-16T10:33:12;22.70;75.50
1716;DHT22;855;48.824;9.220;2022-10-16T10:35:45;22.70;76.00
1716;DHT22;855;48.824;9.220;2022-10-16T10:38:27;22.70;75.40
1716;DHT22;855;48.824;9.220;2022-10-16T10:41:06;22.80;74.60
1716;DHT22;855;48.824;9.220;2022-10-16T10:43:44;23.00;74.10
1716;DHT22;855;48.824;9.220;2022-10-16T10:46:28;23.00;73.80
1716;DHT22;855;48.824;9.220;2022-10-16T10:49:07;23.30;73.10
1716;DHT22;855;48.824;9.220;2022-10-16T10:51:40;23.40;71.90
1716;DHT22;855;48.824;9.220;2022-10-16T10:54:14;23.30;72.10
1716;DHT22;855;48.824;9.220;2022-10-16T10:56:50;23.50;72.30
1716;DHT22;855;48.824;9.220;2022-10-16T10:59:32;23.70;71.30
1716;DHT22;855;48.824;9.220;2022-10-16T11:02:13;23.80;70.90
1716;DHT22;855;48.824;9.220;2022-10-16T11:05:08;23.80;70.80
1716;DHT22;855;48.824;9.220;2022-10-16T11:07:45;23.70;70.80
1716;DHT22;855;48.824;9.220;2022-10-16T11:10:16;24.00;70.20
1716;DHT22;855;48.824;9.220;2022-10-16T11:12:47;24.20;68.90
1716;DHT22;855;48.824;9.220;2022-10-16T11:15:17;24.20;68.90
1716;DHT22;855;48.824;9.220;2022-10-16T11:17:51;24.30;67.70
1716;DHT22;855;48.824;9.220;2022-10-16T11:20:21;24.40;67.70
1716;DHT22;855;48.824;9.220;2022-10-16T11:22:53;24.50;68.60
1716;DHT22;855;48.824;9.220;2022-10-16T11:25:23;24.30;68.00
1716;DHT22;855;48.824;9.220;2022-10-16T11:27:56;24.30;68.80
1716;DHT22;855;48.824;9.220;2022-10-16T11:30:26;24.30;68.90
1716;DHT22;855;48.824;9.220;2022-10-16T11:33:03;24.40;69.20
1716;DHT22;855;48.824;9.220;2022-10-16T11:35:39;24.40;68.10
1716;DHT22;855;48.824;9.220;2022-10-16T11:38:13;24.50;67.20
1716;DHT22;855;48.824;9.220;2022-10-16T11:40:43;24.30;66.70
1716;DHT22;855;48.824;9.220;2022-10-16T11:43:15;24.30;67.70
1716;DHT22;855;48.824;9.220;2022-10-16T11:45:46;24.30;67.60
1716;DHT22;855;48.824;9.220;2022-10-16T11:48:23;24.30;67.20
1716;DHT22;855;48.824;9.220;2022-10-16T11:50:53;24.30;67.10
1716;DHT22;855;48.824;9.220;2022-10-16T11:53:29;24.20;67.50
1716;DHT22;855;48.824;9.220;2022-10-16T11:55:58;24.20;67.70
1716;DHT22;855;48.824;9.220;2022-10-16T11:58:28;24.20;66.80
1716;DHT22;855;48.824;9.220;2022-10-16T12:01:04;24.30;66.70
1716;DHT22;855;48.824;9.220;2022-10-16T12:03:41;24.50;66.50
1716;DHT22;855;48.824;9.220;2022-10-16T12:06:22;24.50;65.90
1716;DHT22;855;48.824;9.220;2022-10-16T12:08:51;24.70;64.90
1716;DHT22;855;48.824;9.220;2022-10-16T12:11:34;24.80;65.70
1716;DHT22;855;48.824;9.220;2022-10-16T12:14:22;24.80;63.40
1716;DHT22;855;48.824;9.220;2022-10-16T12:17:00;24.90;64.30
1716;DHT22;855;48.824;9.220;2022-10-16T12:19:29;25.10;63.50
1716;DHT22;855;48.824;9.220;2022-10-16T12:21:58;25.10;63.40
1716;DHT22;855;48.824;9.220;2022-10-16T12:24:34;25.30;63.50
1716;DHT22;855;48.824;9.220;2022-10-16T12:27:03;25.30;62.40
1716;DHT22;855;48.824;9.220;2022-10-16T12:29:34;25.40;62.40
1716;DHT22;855;48.824;9.220;2022-10-16T12:32:04;25.20;61.50
1716;DHT22;855;48.824;9.220;2022-10-16T12:34:38;25.20;62.20
1716;DHT22;855;48.824;9.220;2022-10-16T12:37:11;25.40;62.40
1716;DHT22;855;48.824;9.220;2022-10-16T12:39:39;25.50;63.10
1716;DHT22;855;48.824;9.220;2022-10-16T12:42:21;25.60;64.30
1716;DHT22;855;48.824;9.220;2022-10-16T12:44:49;25.60;63.20
1716;DHT22;855;48.824;9.220;2022-10-16T12:47:21;25.50;62.40
1716;DHT22;855;48.824;9.220;2022-10-16T12:49:51;25.60;62.40
1716;DHT22;855;48.824;9.220;2022-10-16T12:52:27;25.40;61.40
1716;DHT22;855;48.824;9.220;2022-10-16T12:54:57;25.40;61.20
1716;DHT22;855;48.824;9.220;2022-10-16T12:57:35;25.50;61.20
1716;DHT22;855;48.824;9.220;2022-10-16T13:00:10;25.60;61.00
1716;DHT22;855;48.824;9.220;2022-10-16T13:02:50;25.70;61.20
1716;DHT22;855;48.824;9.220;2022-10-16T13:05:30;25.70;60.40
1716;DHT22;855;48.824;9.220;2022-10-16T13:08:11;25.70;61.00
1716;DHT22;855;48.824;9.220;2022-10-16T13:10:47;25.60;61.40
1716;DHT22;855;48.824;9.220;2022-10-16T13:13:36;25.80;61.00
1716;DHT22;855;48.824;9.220;2022-10-16T13:16:14;25.70;61.10
1716;DHT22;855;48.824;9.220;2022-10-16T13:18:50;25.70;61.50
1716;DHT22;855;48.824;9.220;2022-10-16T13:21:33;25.80;61.20
1716;DHT22;855;48.824;9.220;2022-10-16T13:24:11;25.90;59.90
1716;DHT22;855;48.824;9.220;2022-10-16T13:26:45;26.00;60.10
1716;DHT22;855;48.824;9.220;2022-10-16T13:29:12;26.10;59.90
1716;DHT22;855;48.824;9.220;2022-10-16T13:31:40;26.10;59.20
1716;DHT22;855;48.824;9.220;2022-10-16T13:34:13;26.20;59.30
1716;DHT22;855;48.824;9.220;2022-10-16T13:36:46;26.30;58.50
1716;DHT22;855;48.824;9.220;2022-10-16T13:39:21;26.40;58.90
1716;DHT22;855;48.824;9.220;2022-10-16T13:41:58;26.50;58.40
1716;DHT22;855;48.824;9.220;2022-10-16T13:44:27;26.50;58.00
1716;DHT22;855;48.824;9.220;2022-10-16T13:46:58;26.60;57.80
1716;DHT22;855;48.824;9.220;2022-10-16T13:49:25;26.80;57.70
1716;DHT22;855;48.824;9.220;2022-10-16T13:51:57;26.80;57.40
1716;DHT22;855;48.824;9.220;2022-10-16T13:54:25;26.70;58.40
1716;DHT22;855;48.824;9.220;2022-10-16T13:56:54;26.80;58.30
1716;DHT22;855;48.824;9.220;2022-10-16T13:59:23;26.80;57.80
1716;DHT22;855;48.824;9.220;2022-10-16T14:01:52;26.70;56.80
1716;DHT22;855;48.824;9.220;2022-10-16T14:04:20;26.70;56.30
1716;DHT22;855;48.824;9.220;2022-10-16T14:06:50;26.60;59.50
1716;DHT22;855;48.824;9.220;2022-10-16T14:09:23;26.10;61.20
1716;DHT22;855;48.824;9.220;2022-10-16T14:11:53;25.90;62.00
1716;DHT22;855;48.824;9.220;2022-10-16T14:14:22;25.60;62.40
1716;DHT22;855;48.824;9.220;2022-10-16T14:16:49;25.30;64.00
1716;DHT22;855;48.824;9.220;2022-10-16T14:19:20;25.00;65.50
1716;DHT22;855;48.824;9.220;2022-10-16T14:21:49;24.80;66.30
1716;DHT22;855;48.824;9.220;2022-10-16T14:24:26;24.60;66.50
1716;DHT22;855;48.824;9.220;2022-10-16T14:26:54;24.60;67.10
1716;DHT22;855;48.824;9.220;2022-10-16T14:29:23;24.40;67.70
1716;DHT22;855;48.824;9.220;2022-10-16T14:31:57;24.40;68.10
1716;DHT22;855;48.824;9.220;2022-10-16T14:34:27;24.40;68.90
1716;DHT22;855;48.824;9.220;2022-10-16T14:36:54;24.40;68.80
1716;DHT22;855;48.824;9.220;2022-10-16T14:39:23;24.30;68.90
1716;DHT22;855;48.824;9.220;2022-10-16T14:41:54;24.30;69.00
1716;DHT22;855;48.824;9.220;2022-10-16T14:44:26;24.40;68.80
1716;DHT22;855;48.824;9.220;2022-10-16T14:46:54;24.50;68.80
1716;DHT22;855;48.824;9.220;2022-10-16T14:49:22;24.60;68.60
1716;DHT22;855;48.824;9.220;2022-10-16T14:51:50;24.70;68.50
1716;DHT22;855;48.824;9.220;2022-10-16T14:54:18;24.80;68.50
1716;DHT22;855;48.824;9.220;2022-10-16T14:56:49;24.90;68.20
1716;DHT22;855;48.824;9.220;2022-10-16T14:59:19;24.90;68.60
1716;DHT22;855;48.824;9.220;2022-10-16T15:01:48;25.00;68.50
1716;DHT22;855;48.824;9.220;2022-10-16T15:04:15;25.10;68.50
1716;DHT22;855;48.824;9.220;2022-10-16T15:06:43;25.20;68.50
1716;DHT22;855;48.824;9.220;2022-10-16T15:09:10;25.30;68.10
1716;DHT22;855;48.824;9.220;2022-10-16T15:11:37;25.40;67.90
1716;DHT22;855;48.824;9.220;2022-10-16T15:14:07;25.50;67.90
1716;DHT22;855;48.824;9.220;2022-10-16T15:16:34;25.60;68.40
1716;DHT22;855;48.824;9.220;2022-10-16T15:19:01;25.60;68.90
1716;DHT22;855;48.824;9.220;2022-10-16T15:21:29;25.70;67.90
1716;DHT22;855;48.824;9.220;2022-10-16T15:23:57;25.60;67.20
1716;DHT22;855;48.824;9.220;2022-10-16T15:26:25;25.30;68.20
1716;DHT22;855;48.824;9.220;2022-10-16T15:28:52;25.40;68.50
1716;DHT22;855;48.824;9.220;2022-10-16T15:31:21;25.50;68.60
1716;DHT22;855;48.824;9.220;2022-10-16T15:33:49;25.60;67.70
1716;DHT22;855;48.824;9.220;2022-10-16T15:36:25;25.50;67.10
1716;DHT22;855;48.824;9.220;2022-10-16T15:38:52;25.50;67.50
1716;DHT22;855;48.824;9.220;2022-10-16T15:41:19;25.50;68.50
1716;DHT22;855;48.824;9.220;2022-10-16T15:43:48;25.40;70.90
1716;DHT22;855;48.824;9.220;2022-10-16T15:46:15;25.30;71.70
1716;DHT22;855;48.824;9.220;2022-10-16T15:48:45;25.30;71.90
1716;DHT22;855;48.824;9.220;2022-10-16T15:51:12;25.30;71.40
1716;DHT22;855;48.824;9.220;2022-10-16T15:53:39;25.20;71.40
1716;DHT22;855;48.824;9.220;2022-10-16T15:56:07;25.10;72.10
1716;DHT22;855;48.824;9.220;2022-10-16T15:58:35;25.10;72.50
1716;DHT22;855;48.824;9.220;2022-10-16T16:01:02;25.00;72.50
1716;DHT22;855;48.824;9.220;2022-10-16T16:03:30;25.00;72.90
1716;DHT22;855;48.824;9.220;2022-10-16T16:06:03;25.00;73.10
1716;DHT22;855;48.824;9.220;2022-10-16T16:08:30;24.90;74.90
1716;DHT22;855;48.824;9.220;2022-10-16T16:10:58;24.80;75.00
1716;DHT22;855;48.824;9.220;2022-10-16T16:13:25;24.70;74.90
1716;DHT22;855;48.824;9.220;2022-10-16T16:15:52;24.60;75.00
1716;DHT22;855;48.824;9.220;2022-10-16T16:18:19;24.30;76.00
1716;DHT22;855;48.824;9.220;2022-10-16T16:20:45;24.20;76.70
1716;DHT22;855;48.824;9.220;2022-10-16T16:23:14;24.20;76.60
1716;DHT22;855;48.824;9.220;2022-10-16T16:25:40;24.10;77.20
1716;DHT22;855;48.824;9.220;2022-10-16T16:28:07;24.10;77.10
1716;DHT22;855;48.824;9.220;2022-10-16T16:30:36;24.00;77.20
1716;DHT22;855;48.824;9.220;2022-10-16T16:33:03;23.90;77.80
1716;DHT22;855;48.824;9.220;2022-10-16T16:35:29;23.80;78.60
1716;DHT22;855;48.824;9.220;2022-10-16T16:37:56;23.70;78.80
1716;DHT22;855;48.824;9.220;2022-10-16T16:40:24;23.60;79.10
1716;DHT22;855;48.824;9.220;2022-10-16T16:42:52;23.50;79.50
1716;DHT22;855;48.824;9.220;2022-10-16T16:45:18;23.40;79.90
1716;DHT22;855;48.824;9.220;2022-10-16T16:47:45;23.30;80.00
1716;DHT22;855;48.824;9.220;2022-10-16T16:50:12;23.20;80.10
1716;DHT22;855;48.824;9.220;2022-10-16T16:52:39;23.10;80.40
1716;DHT22;855;48.824;9.220;2022-10-16T16:55:06;22.90;82.00
1716;DHT22;855;48.824;9.220;2022-10-16T16:57:35;22.50;83.40
1716;DHT22;855;48.824;9.220;2022-10-16T17:00:03;22.50;83.70
1716;DHT22;855;48.824;9.220;2022-10-16T17:02:30;22.50;84.10
1716;DHT22;855;48.824;9.220;2022-10-16T17:04:58;22.40;84.40
1716;DHT22;855;48.824;9.220;2022-10-16T17:07:24;22.30;84.80
1716;DHT22;855;48.824;9.220;2022-10-16T17:09:52;22.00;85.60
1716;DHT22;855;48.824;9.220;2022-10-16T17:12:19;22.00;85.40
1716;DHT22;855;48.824;9.220;2022-10-16T17:14:47;22.00;85.70
1716;DHT22;855;48.824;9.220;2022-10-16T17:17:16;21.70;86.50
1716;DHT22;855;48.824;9.220;2022-10-16T17:19:43;21.60;87.00
1716;DHT22;855;48.824;9.220;2022-10-16T17:22:10;21.60;86.70
1716;DHT22;855;48.824;9.220;2022-10-16T17:24:37;21.50;86.70
1716;DHT22;855;48.824;9.220;2022-10-16T17:27:03;21.50;86.70
1716;DHT22;855;48.824;9.220;2022-10-16T17:29:30;21.50;86.70
1716;DHT22;855;48.824;9.220;2022-10-16T17:31:58;21.50;86.70
1716;DHT22;855;48.824;9.220;2022-10-16T17:34:25;21.40;87.10
1716;DHT22;855;48.824;9.220;2022-10-16T17:36:52;21.10;88.20
1716;DHT22;855;48.824;9.220;2022-10-16T17:39:19;21.10;88.20
1716;DHT22;855;48.824;9.220;2022-10-16T17:41:46;21.10;87.90
1716;DHT22;855;48.824;9.220;2022-10-16T17:44:15;21.10;87.70
1716;DHT22;855;48.824;9.220;2022-10-16T17:46:45;21.10;87.70
1716;DHT22;855;48.824;9.220;2022-10-16T17:52:14;20.90;87.90
1716;DHT22;855;48.824;9.220;2022-10-16T17:54:41;20.60;88.90
1716;DHT22;855;48.824;9.220;2022-10-16T17:57:08;20.50;89.40
1716;DHT22;855;48.824;9.220;2022-10-16T18:44:19;19.40;91.00
1716;DHT22;855;48.824;9.220;2022-10-16T19:01:30;19.00;91.40
1716;DHT22;855;48.824;9.220;2022-10-16T19:03:59;19.00;91.40
1716;DHT22;855;48.824;9.220;2022-10-16T19:06:28;18.90;91.50
1716;DHT22;855;48.824;9.220;2022-10-16T19:08:55;18.70;91.90
1716;DHT22;855;48.824;9.220;2022-10-16T19:11:24;18.70;92.10
1716;DHT22;855;48.824;9.220;2022-10-16T19:13:59;18.60;92.30
1716;DHT22;855;48.824;9.220;2022-10-16T19:16:29;18.60;92.30
1716;DHT22;855;48.824;9.220;2022-10-16T19:18:58;18.50;92.60
1716;DHT22;855;48.824;9.220;2022-10-16T19:21:27;18.50;92.60
1716;DHT22;855;48.824;9.220;2022-10-16T19:23:55;18.40;92.60
1716;DHT22;855;48.824;9.220;2022-10-16T19:26:23;18.40;92.70
1716;DHT22;855;48.824;9.220;2022-10-16T19:34:03;18.40;92.70
1716;DHT22;855;48.824;9.220;2022-10-16T19:36:34;18.40;92.50
1716;DHT22;855;48.824;9.220;2022-10-16T19:39:03;18.40;92.30
1716;DHT22;855;48.824;9.220;2022-10-16T19:41:31;18.30;92.20
1716;DHT22;855;48.824;9.220;2022-10-16T19:44:00;18.30;92.20
1716;DHT22;855;48.824;9.220;2022-10-16T19:46:27;18.30;92.20
1716;DHT22;855;48.824;9.220;2022-10-16T19:48:58;18.30;92.00
1716;DHT22;855;48.824;9.220;2022-10-16T19:51:27;18.20;92.20
1716;DHT22;855;48.824;9.220;2022-10-16T19:53:55;18.20;92.10
1716;DHT22;855;48.824;9.220;2022-10-16T19:56:24;18.10;92.10
1716;DHT22;855;48.824;9.220;2022-10-16T19:58:53;18.10;92.10
1716;DHT22;855;48.824;9.220;2022-10-16T20:01:21;17.90;92.40
1716;DHT22;855;48.824;9.220;2022-10-16T20:03:48;17.90;92.60
1716;DHT22;855;48.824;9.220;2022-10-16T20:06:16;17.80;92.90
1716;DHT22;855;48.824;9.220;2022-10-16T20:08:46;17.80;93.00
1716;DHT22;855;48.824;9.220;2022-10-16T20:11:15;17.80;93.00
1716;DHT22;855;48.824;9.220;2022-10-16T20:13:42;17.70;93.10
1716;DHT22;855;48.824;9.220;2022-10-16T20:16:10;17.60;93.30
1716;DHT22;855;48.824;9.220;2022-10-16T20:18:38;17.50;93.40
1716;DHT22;855;48.824;9.220;2022-10-16T20:21:11;17.50;93.60
1716;DHT22;855;48.824;9.220;2022-10-16T20:23:38;17.50;93.40
1716;DHT22;855;48.824;9.220;2022-10-16T20:26:07;17.50;93.40
1716;DHT22;855;48.824;9.220;2022-10-16T20:28:37;17.50;93.30
1716;DHT22;855;48.824;9.220;2022-10-16T20:31:06;17.50;93.20
1716;DHT22;855;48.824;9.220;2022-10-16T20:33:34;17.50;93.20
1716;DHT22;855;48.824;9.220;2022-10-16T20:41:14;17.40;93.50
1716;DHT22;855;48.824;9.220;2022-10-16T20:43:42;17.30;93.60
1716;DHT22;855;48.824;9.220;2022-10-16T20:46:11;17.30;93.50
1716;DHT22;855;48.824;9.220;2022-10-16T20:48:39;17.30;93.50
1716;DHT22;855;48.824;9.220;2022-10-16T20:51:14;17.30;93.50
1716;DHT22;855;48.824;9.220;2022-10-16T20:53:41;17.20;93.50
1716;DHT22;855;48.824;9.220;2022-10-16T20:56:08;17.10;93.70
1716;DHT22;855;48.824;9.220;2022-10-16T20:58:38;17.10;93.90
1716;DHT22;855;48.824;9.220;2022-10-16T21:01:08;17.00;94.00
1716;DHT22;855;48.824;9.220;2022-10-16T21:03:36;16.80;94.50
1716;DHT22;855;48.824;9.220;2022-10-16T21:06:03;16.80;94.60
1716;DHT22;855;48.824;9.220;2022-10-16T21:08:33;16.80;94.60
1716;DHT22;855;48.824;9.220;2022-10-16T21:11:01;16.70;94.70
1716;DHT22;855;48.824;9.220;2022-10-16T21:29:11;16.60;94.80
1716;DHT22;855;48.824;9.220;2022-10-16T21:31:38;16.30;95.20
1716;DHT22;855;48.824;9.220;2022-10-16T21:34:06;16.20;95.80
1716;DHT22;855;48.824;9.220;2022-10-16T21:44:20;16.10;96.20
1716;DHT22;855;48.824;9.220;2022-10-16T21:49:23;16.20;95.70
